sensor_id;sensor_type;location;lat;lon;timestamp;P1;durP1;ratioP1;P2;durP2;ratioP2
8341;SDS011;4208;49.406;10.788;2022-09-29T00:01:16;4.60;;;3.67;;
8341;SDS011;4208;49.406;10.788;2022-09-29T00:03:45;3.83;;;3.17;;
8341;SDS011;4208;49.406;10.788;2022-09-29T00:06:14;6.43;;;3.07;;
8341;SDS011;4208;49.406;10.788;2022-09-29T00:08:44;5.70;;;2.80;;
8341;SDS011;4208;49.406;10.788;2022-09-29T00:11:16;5.50;;;3.10;;
8341;SDS011;4208;49.406;10.788;2022-09-29T00:13:46;4.17;;;2.87;;
8341;SDS011;4208;49.406;10.788;2022-09-29T00:16:15;6.27;;;3.57;;
8341;SDS011;4208;49.406;10.788;2022-09-29T00:18:44;7.00;;;3.10;;
8341;SDS011;4208;49.406;10.788;2022-09-29T00:21:13;4.63;;;3.20;;
8341;SDS011;4208;49.406;10.788;2022-09-29T00:23:45;7.03;;;4.30;;
8341;SDS011;4208;49.406;10.788;2022-09-29T00:26:16;3.57;;;3.27;;
8341;SDS011;4208;49.406;10.788;2022-09-29T00:28:46;5.17;;;2.80;;
8341;SDS011;4208;49.406;10.788;2022-09-29T00:31:18;3.67;;;3.13;;
8341;SDS011;4208;49.406;10.788;2022-09-29T00:33:48;3.77;;;2.73;;
8341;SDS011;4208;49.406;10.788;2022-09-29T00:36:18;6.97;;;3.10;;
8341;SDS011;4208;49.406;10.788;2022-09-29T00:38:48;7.43;;;3.20;;
8341;SDS011;4208;49.406;10.788;2022-09-29T00:41:21;4.80;;;3.27;;
8341;SDS011;4208;49.406;10.788;2022-09-29T00:43:55;5.93;;;3.13;;
8341;SDS011;4208;49.406;10.788;2022-09-29T00:46:36;4.07;;;3.13;;
8341;SDS011;4208;49.406;10.788;2022-09-29T00:49:11;4.07;;;3.13;;
8341;SDS011;4208;49.406;10.788;2022-09-29T00:51:44;5.37;;;2.97;;
8341;SDS011;4208;49.406;10.788;2022-09-29T00:54:18;10.00;;;3.47;;
8341;SDS011;4208;49.406;10.788;2022-09-29T00:56:49;4.70;;;3.17;;
8341;SDS011;4208;49.406;10.788;2022-09-29T00:59:18;4.53;;;3.20;;
8341;SDS011;4208;49.406;10.788;2022-09-29T01:01:54;4.53;;;2.80;;
8341;SDS011;4208;49.406;10.788;2022-09-29T01:04:23;2.93;;;2.70;;
8341;SDS011;4208;49.406;10.788;2022-09-29T01:06:52;3.30;;;2.90;;
8341;SDS011;4208;49.406;10.788;2022-09-29T01:09:25;10.33;;;3.10;;
8341;SDS011;4208;49.406;10.788;2022-09-29T01:11:58;4.93;;;3.00;;
8341;SDS011;4208;49.406;10.788;2022-09-29T01:14:28;6.77;;;3.27;;
8341;SDS011;4208;49.406;10.788;2022-09-29T01:16:59;4.37;;;3.40;;
8341;SDS011;4208;49.406;10.788;2022-09-29T01:19:29;7.13;;;3.60;;
8341;SDS011;4208;49.406;10.788;2022-09-29T01:22:09;5.23;;;3.30;;
8341;SDS011;4208;49.406;10.788;2022-09-29T01:24:57;5.17;;;3.10;;
8341;SDS011;4208;49.406;10.788;2022-09-29T01:27:45;5.80;;;3.30;;
8341;SDS011;4208;49.406;10.788;2022-09-29T01:33:36;8.83;;;5.90;;
8341;SDS011;4208;49.406;10.788;2022-09-29T01:36:11;9.90;;;6.00;;
8341;SDS011;4208;49.406;10.788;2022-09-29T01:38:53;12.47;;;7.13;;
8341;SDS011;4208;49.406;10.788;2022-09-29T01:41:32;19.43;;;11.20;;
8341;SDS011;4208;49.406;10.788;2022-09-29T01:44:07;18.67;;;10.80;;
8341;SDS011;4208;49.406;10.788;2022-09-29T01:46:43;16.43;;;9.87;;
8341;SDS011;4208;49.406;10.788;2022-09-29T01:49:17;16.57;;;11.03;;
8341;SDS011;4208;49.406;10.788;2022-09-29T01:51:50;16.87;;;10.77;;
8341;SDS011;4208;49.406;10.788;2022-09-29T01:54:21;19.37;;;11.60;;
8341;SDS011;4208;49.406;10.788;2022-09-29T01:56:55;17.03;;;10.43;;
8341;SDS011;4208;49.406;10.788;2022-09-29T01:59:30;23.30;;;12.80;;
8341;SDS011;4208;49.406;10.788;2022-09-29T02:02:04;17.83;;;10.30;;
8341;SDS011;4208;49.406;10.788;2022-09-29T02:04:40;16.40;;;10.27;;
8341;SDS011;4208;49.406;10.788;2022-09-29T02:07:15;15.73;;;11.10;;
8341;SDS011;4208;49.406;10.788;2022-09-29T02:09:48;14.47;;;10.40;;
8341;SDS011;4208;49.406;10.788;2022-09-29T02:12:22;12.53;;;9.63;;
8341;SDS011;4208;49.406;10.788;2022-09-29T02:14:54;13.53;;;9.13;;
8341;SDS011;4208;49.406;10.788;2022-09-29T02:17:25;12.10;;;7.57;;
8341;SDS011;4208;49.406;10.788;2022-09-29T02:19:59;10.13;;;7.53;;
8341;SDS011;4208;49.406;10.788;2022-09-29T02:22:27;8.57;;;6.20;;
8341;SDS011;4208;49.406;10.788;2022-09-29T02:24:57;9.73;;;5.67;;
8341;SDS011;4208;49.406;10.788;2022-09-29T02:27:26;7.97;;;5.10;;
8341;SDS011;4208;49.406;10.788;2022-09-29T02:29:56;6.97;;;4.13;;
8341;SDS011;4208;49.406;10.788;2022-09-29T02:32:25;6.30;;;4.13;;
8341;SDS011;4208;49.406;10.788;2022-09-29T02:34:56;9.70;;;4.40;;
8341;SDS011;4208;49.406;10.788;2022-09-29T02:37:35;5.17;;;3.70;;
8341;SDS011;4208;49.406;10.788;2022-09-29T02:40:17;3.90;;;3.50;;
8341;SDS011;4208;49.406;10.788;2022-09-29T02:42:59;4.00;;;3.53;;
8341;SDS011;4208;49.406;10.788;2022-09-29T02:45:40;7.57;;;4.17;;
8341;SDS011;4208;49.406;10.788;2022-09-29T02:48:29;4.73;;;3.60;;
8341;SDS011;4208;49.406;10.788;2022-09-29T02:51:19;8.03;;;3.57;;
8341;SDS011;4208;49.406;10.788;2022-09-29T02:53:59;8.53;;;5.10;;
8341;SDS011;4208;49.406;10.788;2022-09-29T02:56:46;8.00;;;5.10;;
8341;SDS011;4208;49.406;10.788;2022-09-29T02:59:22;12.23;;;5.33;;
8341;SDS011;4208;49.406;10.788;2022-09-29T03:01:55;8.57;;;5.10;;
8341;SDS011;4208;49.406;10.788;2022-09-29T03:04:25;5.97;;;4.20;;
8341;SDS011;4208;49.406;10.788;2022-09-29T03:06:56;5.57;;;4.23;;
8341;SDS011;4208;49.406;10.788;2022-09-29T03:09:25;12.73;;;5.40;;
8341;SDS011;4208;49.406;10.788;2022-09-29T03:11:54;7.07;;;4.97;;
8341;SDS011;4208;49.406;10.788;2022-09-29T03:14:23;6.73;;;4.20;;
8341;SDS011;4208;49.406;10.788;2022-09-29T03:16:51;5.87;;;3.97;;
8341;SDS011;4208;49.406;10.788;2022-09-29T03:19:20;3.47;;;3.17;;
8341;SDS011;4208;49.406;10.788;2022-09-29T03:21:49;9.40;;;4.03;;
8341;SDS011;4208;49.406;10.788;2022-09-29T03:24:19;5.20;;;3.63;;
8341;SDS011;4208;49.406;10.788;2022-09-29T03:26:47;6.93;;;3.80;;
8341;SDS011;4208;49.406;10.788;2022-09-29T03:29:16;4.97;;;4.03;;
8341;SDS011;4208;49.406;10.788;2022-09-29T03:31:45;8.50;;;4.50;;
8341;SDS011;4208;49.406;10.788;2022-09-29T03:34:14;7.73;;;3.90;;
8341;SDS011;4208;49.406;10.788;2022-09-29T03:36:42;8.73;;;5.40;;
8341;SDS011;4208;49.406;10.788;2022-09-29T03:39:11;15.53;;;8.93;;
8341;SDS011;4208;49.406;10.788;2022-09-29T03:41:41;32.53;;;20.97;;
8341;SDS011;4208;49.406;10.788;2022-09-29T03:44:10;65.27;;;36.80;;
8341;SDS011;4208;49.406;10.788;2022-09-29T03:46:38;43.60;;;26.27;;
8341;SDS011;4208;49.406;10.788;2022-09-29T03:49:08;33.27;;;20.03;;
8341;SDS011;4208;49.406;10.788;2022-09-29T03:51:38;44.73;;;25.67;;
8341;SDS011;4208;49.406;10.788;2022-09-29T03:54:06;51.20;;;27.23;;
8341;SDS011;4208;49.406;10.788;2022-09-29T03:56:36;49.37;;;27.37;;
8341;SDS011;4208;49.406;10.788;2022-09-29T03:59:06;49.80;;;26.93;;
8341;SDS011;4208;49.406;10.788;2022-09-29T04:01:38;45.70;;;25.20;;
8341;SDS011;4208;49.406;10.788;2022-09-29T04:04:07;31.10;;;18.23;;
8341;SDS011;4208;49.406;10.788;2022-09-29T04:06:36;21.87;;;11.73;;
8341;SDS011;4208;49.406;10.788;2022-09-29T04:09:05;9.87;;;5.80;;
8341;SDS011;4208;49.406;10.788;2022-09-29T04:11:34;16.27;;;8.60;;
8341;SDS011;4208;49.406;10.788;2022-09-29T04:14:02;19.37;;;10.27;;
8341;SDS011;4208;49.406;10.788;2022-09-29T04:16:32;20.13;;;12.27;;
8341;SDS011;4208;49.406;10.788;2022-09-29T04:19:01;32.43;;;17.20;;
8341;SDS011;4208;49.406;10.788;2022-09-29T04:21:30;19.97;;;12.57;;
8341;SDS011;4208;49.406;10.788;2022-09-29T04:23:59;11.53;;;6.60;;
8341;SDS011;4208;49.406;10.788;2022-09-29T04:26:28;7.70;;;4.70;;
8341;SDS011;4208;49.406;10.788;2022-09-29T04:28:56;6.80;;;4.77;;
8341;SDS011;4208;49.406;10.788;2022-09-29T04:31:25;9.60;;;4.50;;
8341;SDS011;4208;49.406;10.788;2022-09-29T04:33:55;6.33;;;4.03;;
8341;SDS011;4208;49.406;10.788;2022-09-29T04:36:23;7.70;;;4.80;;
8341;SDS011;4208;49.406;10.788;2022-09-29T04:38:52;6.40;;;4.60;;
8341;SDS011;4208;49.406;10.788;2022-09-29T04:41:21;9.33;;;4.57;;
8341;SDS011;4208;49.406;10.788;2022-09-29T04:43:49;6.60;;;4.53;;
8341;SDS011;4208;49.406;10.788;2022-09-29T04:46:18;6.07;;;4.67;;
8341;SDS011;4208;49.406;10.788;2022-09-29T04:48:47;5.60;;;4.63;;
8341;SDS011;4208;49.406;10.788;2022-09-29T04:51:17;8.17;;;5.00;;
8341;SDS011;4208;49.406;10.788;2022-09-29T04:53:45;9.90;;;6.40;;
8341;SDS011;4208;49.406;10.788;2022-09-29T04:56:14;7.67;;;5.90;;
8341;SDS011;4208;49.406;10.788;2022-09-29T04:58:43;8.53;;;5.97;;
8341;SDS011;4208;49.406;10.788;2022-09-29T05:01:11;9.43;;;5.27;;
8341;SDS011;4208;49.406;10.788;2022-09-29T05:03:40;7.90;;;5.63;;
8341;SDS011;4208;49.406;10.788;2022-09-29T05:06:10;16.00;;;8.10;;
8341;SDS011;4208;49.406;10.788;2022-09-29T05:08:40;9.13;;;6.30;;
8341;SDS011;4208;49.406;10.788;2022-09-29T05:11:09;5.80;;;4.77;;
8341;SDS011;4208;49.406;10.788;2022-09-29T05:13:38;8.37;;;4.80;;
8341;SDS011;4208;49.406;10.788;2022-09-29T05:16:06;6.50;;;5.63;;
8341;SDS011;4208;49.406;10.788;2022-09-29T05:18:35;9.87;;;8.70;;
8341;SDS011;4208;49.406;10.788;2022-09-29T05:21:04;11.33;;;7.00;;
8341;SDS011;4208;49.406;10.788;2022-09-29T05:23:56;9.87;;;7.37;;
8341;SDS011;4208;49.406;10.788;2022-09-29T05:26:24;14.03;;;7.93;;
8341;SDS011;4208;49.406;10.788;2022-09-29T05:28:53;16.23;;;7.50;;
8341;SDS011;4208;49.406;10.788;2022-09-29T05:31:22;14.07;;;8.83;;
8341;SDS011;4208;49.406;10.788;2022-09-29T05:33:50;14.63;;;8.57;;
8341;SDS011;4208;49.406;10.788;2022-09-29T05:36:19;26.43;;;23.57;;
8341;SDS011;4208;49.406;10.788;2022-09-29T05:38:48;20.13;;;16.77;;
8341;SDS011;4208;49.406;10.788;2022-09-29T05:41:19;23.47;;;19.07;;
8341;SDS011;4208;49.406;10.788;2022-09-29T05:43:49;28.77;;;14.47;;
8341;SDS011;4208;49.406;10.788;2022-09-29T05:46:19;21.00;;;12.70;;
8341;SDS011;4208;49.406;10.788;2022-09-29T05:48:49;15.40;;;7.53;;
8341;SDS011;4208;49.406;10.788;2022-09-29T05:51:19;12.83;;;7.40;;
8341;SDS011;4208;49.406;10.788;2022-09-29T05:53:49;11.53;;;6.17;;
8341;SDS011;4208;49.406;10.788;2022-09-29T05:56:20;16.27;;;5.97;;
8341;SDS011;4208;49.406;10.788;2022-09-29T05:58:51;9.07;;;6.57;;
8341;SDS011;4208;49.406;10.788;2022-09-29T06:01:21;16.00;;;6.87;;
8341;SDS011;4208;49.406;10.788;2022-09-29T06:03:52;10.20;;;6.90;;
8341;SDS011;4208;49.406;10.788;2022-09-29T06:06:21;11.20;;;6.27;;
8341;SDS011;4208;49.406;10.788;2022-09-29T06:08:51;11.63;;;6.10;;
8341;SDS011;4208;49.406;10.788;2022-09-29T06:11:23;7.67;;;5.70;;
8341;SDS011;4208;49.406;10.788;2022-09-29T06:13:53;9.63;;;6.10;;
8341;SDS011;4208;49.406;10.788;2022-09-29T06:16:23;7.53;;;5.97;;
8341;SDS011;4208;49.406;10.788;2022-09-29T06:18:54;6.80;;;5.70;;
8341;SDS011;4208;49.406;10.788;2022-09-29T06:21:24;10.23;;;5.93;;
8341;SDS011;4208;49.406;10.788;2022-09-29T06:23:54;8.23;;;5.80;;
8341;SDS011;4208;49.406;10.788;2022-09-29T06:26:25;9.17;;;6.47;;
8341;SDS011;4208;49.406;10.788;2022-09-29T06:28:55;7.97;;;6.17;;
8341;SDS011;4208;49.406;10.788;2022-09-29T06:31:24;40.53;;;18.20;;
8341;SDS011;4208;49.406;10.788;2022-09-29T06:33:55;23.83;;;12.13;;
8341;SDS011;4208;49.406;10.788;2022-09-29T06:36:27;16.67;;;9.53;;
8341;SDS011;4208;49.406;10.788;2022-09-29T06:39:15;14.40;;;8.00;;
8341;SDS011;4208;49.406;10.788;2022-09-29T06:41:45;19.27;;;10.40;;
8341;SDS011;4208;49.406;10.788;2022-09-29T06:44:19;29.50;;;15.63;;
8341;SDS011;4208;49.406;10.788;2022-09-29T06:46:50;17.70;;;11.63;;
8341;SDS011;4208;49.406;10.788;2022-09-29T06:49:19;23.27;;;13.27;;
8341;SDS011;4208;49.406;10.788;2022-09-29T06:51:48;13.13;;;9.00;;
8341;SDS011;4208;49.406;10.788;2022-09-29T06:54:18;10.53;;;7.13;;
8341;SDS011;4208;49.406;10.788;2022-09-29T06:56:52;10.60;;;7.30;;
8341;SDS011;4208;49.406;10.788;2022-09-29T06:59:21;11.27;;;7.23;;
8341;SDS011;4208;49.406;10.788;2022-09-29T07:01:50;9.80;;;6.60;;
8341;SDS011;4208;49.406;10.788;2022-09-29T07:04:19;9.00;;;6.73;;
8341;SDS011;4208;49.406;10.788;2022-09-29T07:06:48;9.17;;;6.57;;
8341;SDS011;4208;49.406;10.788;2022-09-29T07:09:17;8.87;;;6.17;;
8341;SDS011;4208;49.406;10.788;2022-09-29T07:11:47;8.40;;;6.40;;
8341;SDS011;4208;49.406;10.788;2022-09-29T07:14:19;9.13;;;7.60;;
8341;SDS011;4208;49.406;10.788;2022-09-29T07:16:49;11.27;;;8.10;;
8341;SDS011;4208;49.406;10.788;2022-09-29T07:19:18;8.17;;;6.30;;
8341;SDS011;4208;49.406;10.788;2022-09-29T07:21:48;9.07;;;6.50;;
8341;SDS011;4208;49.406;10.788;2022-09-29T07:24:17;6.57;;;5.60;;
8341;SDS011;4208;49.406;10.788;2022-09-29T07:26:46;9.07;;;6.80;;
8341;SDS011;4208;49.406;10.788;2022-09-29T07:29:14;12.87;;;5.80;;
8341;SDS011;4208;49.406;10.788;2022-09-29T07:31:45;8.07;;;6.47;;
8341;SDS011;4208;49.406;10.788;2022-09-29T07:34:18;13.17;;;7.70;;
8341;SDS011;4208;49.406;10.788;2022-09-29T07:36:47;9.60;;;7.00;;
8341;SDS011;4208;49.406;10.788;2022-09-29T07:39:18;9.30;;;7.10;;
8341;SDS011;4208;49.406;10.788;2022-09-29T07:41:48;7.83;;;6.10;;
8341;SDS011;4208;49.406;10.788;2022-09-29T07:44:17;7.07;;;5.90;;
8341;SDS011;4208;49.406;10.788;2022-09-29T07:46:48;7.33;;;5.80;;
8341;SDS011;4208;49.406;10.788;2022-09-29T07:49:17;7.17;;;5.60;;
8341;SDS011;4208;49.406;10.788;2022-09-29T07:51:46;7.47;;;5.73;;
8341;SDS011;4208;49.406;10.788;2022-09-29T07:54:14;8.73;;;6.30;;
8341;SDS011;4208;49.406;10.788;2022-09-29T07:56:43;9.07;;;6.13;;
8341;SDS011;4208;49.406;10.788;2022-09-29T07:59:12;8.57;;;5.87;;
8341;SDS011;4208;49.406;10.788;2022-09-29T08:01:41;9.43;;;6.63;;
8341;SDS011;4208;49.406;10.788;2022-09-29T08:04:11;11.60;;;6.77;;
8341;SDS011;4208;49.406;10.788;2022-09-29T08:06:39;10.33;;;7.00;;
8341;SDS011;4208;49.406;10.788;2022-09-29T08:09:09;8.47;;;6.43;;
8341;SDS011;4208;49.406;10.788;2022-09-29T08:11:38;10.70;;;6.63;;
8341;SDS011;4208;49.406;10.788;2022-09-29T08:14:09;9.90;;;6.83;;
8341;SDS011;4208;49.406;10.788;2022-09-29T08:16:38;8.60;;;6.03;;
8341;SDS011;4208;49.406;10.788;2022-09-29T08:19:07;8.00;;;6.37;;
8341;SDS011;4208;49.406;10.788;2022-09-29T08:21:37;10.07;;;6.27;;
8341;SDS011;4208;49.406;10.788;2022-09-29T08:24:05;10.93;;;6.37;;
8341;SDS011;4208;49.406;10.788;2022-09-29T08:26:35;8.30;;;6.20;;
8341;SDS011;4208;49.406;10.788;2022-09-29T08:29:10;7.63;;;5.57;;
8341;SDS011;4208;49.406;10.788;2022-09-29T08:31:43;13.17;;;7.40;;
8341;SDS011;4208;49.406;10.788;2022-09-29T08:34:12;11.17;;;6.83;;
8341;SDS011;4208;49.406;10.788;2022-09-29T08:36:42;9.43;;;5.63;;
8341;SDS011;4208;49.406;10.788;2022-09-29T08:39:11;10.43;;;4.97;;
8341;SDS011;4208;49.406;10.788;2022-09-29T08:41:45;6.80;;;4.50;;
8341;SDS011;4208;49.406;10.788;2022-09-29T08:44:21;6.20;;;4.93;;
8341;SDS011;4208;49.406;10.788;2022-09-29T08:47:07;6.37;;;4.60;;
8341;SDS011;4208;49.406;10.788;2022-09-29T08:49:45;4.73;;;4.00;;
8341;SDS011;4208;49.406;10.788;2022-09-29T08:52:19;6.60;;;4.38;;
8341;SDS011;4208;49.406;10.788;2022-09-29T08:54:52;9.05;;;4.80;;
8341;SDS011;4208;49.406;10.788;2022-09-29T08:57:24;8.90;;;4.63;;
8341;SDS011;4208;49.406;10.788;2022-09-29T08:59:54;6.03;;;4.50;;
8341;SDS011;4208;49.406;10.788;2022-09-29T09:02:32;6.45;;;4.70;;
8341;SDS011;4208;49.406;10.788;2022-09-29T09:05:27;10.13;;;5.22;;
8341;SDS011;4208;49.406;10.788;2022-09-29T09:08:10;9.00;;;5.18;;
8341;SDS011;4208;49.406;10.788;2022-09-29T09:10:48;6.30;;;5.45;;
8341;SDS011;4208;49.406;10.788;2022-09-29T09:16:26;7.60;;;5.35;;
8341;SDS011;4208;49.406;10.788;2022-09-29T09:19:08;7.68;;;6.20;;
8341;SDS011;4208;49.406;10.788;2022-09-29T09:21:51;5.82;;;5.18;;
8341;SDS011;4208;49.406;10.788;2022-09-29T09:24:28;7.75;;;5.60;;
8341;SDS011;4208;49.406;10.788;2022-09-29T09:27:06;8.20;;;5.28;;
8341;SDS011;4208;49.406;10.788;2022-09-29T09:29:41;6.05;;;5.22;;
8341;SDS011;4208;49.406;10.788;2022-09-29T09:32:11;8.80;;;4.90;;
8341;SDS011;4208;49.406;10.788;2022-09-29T09:34:48;9.70;;;5.15;;
8341;SDS011;4208;49.406;10.788;2022-09-29T09:37:27;9.60;;;5.60;;
8341;SDS011;4208;49.406;10.788;2022-09-29T09:40:02;7.80;;;5.70;;
8341;SDS011;4208;49.406;10.788;2022-09-29T09:42:42;9.38;;;5.10;;
8341;SDS011;4208;49.406;10.788;2022-09-29T09:45:15;9.07;;;5.55;;
8341;SDS011;4208;49.406;10.788;2022-09-29T09:47:52;7.65;;;5.03;;
8341;SDS011;4208;49.406;10.788;2022-09-29T09:50:26;8.15;;;5.72;;
8341;SDS011;4208;49.406;10.788;2022-09-29T09:52:57;9.15;;;5.10;;
8341;SDS011;4208;49.406;10.788;2022-09-29T09:55:31;7.90;;;5.47;;
8341;SDS011;4208;49.406;10.788;2022-09-29T09:58:17;7.43;;;5.03;;
8341;SDS011;4208;49.406;10.788;2022-09-29T10:00:57;10.88;;;5.25;;
8341;SDS011;4208;49.406;10.788;2022-09-29T10:03:29;7.85;;;5.55;;
8341;SDS011;4208;49.406;10.788;2022-09-29T10:05:58;6.20;;;3.90;;
8341;SDS011;4208;49.406;10.788;2022-09-29T10:08:27;8.05;;;4.88;;
8341;SDS011;4208;49.406;10.788;2022-09-29T10:11:01;7.32;;;4.18;;
8341;SDS011;4208;49.406;10.788;2022-09-29T10:13:30;7.28;;;4.35;;
8341;SDS011;4208;49.406;10.788;2022-09-29T10:16:00;10.63;;;5.05;;
8341;SDS011;4208;49.406;10.788;2022-09-29T10:18:39;7.88;;;5.00;;
8341;SDS011;4208;49.406;10.788;2022-09-29T10:21:18;8.63;;;4.20;;
8341;SDS011;4208;49.406;10.788;2022-09-29T10:23:49;10.40;;;5.10;;
8341;SDS011;4208;49.406;10.788;2022-09-29T10:26:22;15.93;;;8.70;;
8341;SDS011;4208;49.406;10.788;2022-09-29T10:28:53;9.98;;;5.75;;
8341;SDS011;4208;49.406;10.788;2022-09-29T10:31:25;8.63;;;4.07;;
8341;SDS011;4208;49.406;10.788;2022-09-29T10:33:56;6.80;;;4.18;;
8341;SDS011;4208;49.406;10.788;2022-09-29T10:36:28;7.15;;;3.42;;
8341;SDS011;4208;49.406;10.788;2022-09-29T10:38:59;6.45;;;3.00;;
8341;SDS011;4208;49.406;10.788;2022-09-29T10:41:36;7.57;;;3.73;;
8341;SDS011;4208;49.406;10.788;2022-09-29T10:44:20;5.97;;;3.50;;
8341;SDS011;4208;49.406;10.788;2022-09-29T10:46:51;5.30;;;3.50;;
8341;SDS011;4208;49.406;10.788;2022-09-29T10:49:21;6.70;;;3.83;;
8341;SDS011;4208;49.406;10.788;2022-09-29T10:51:57;5.60;;;4.75;;
8341;SDS011;4208;49.406;10.788;2022-09-29T10:54:29;7.25;;;3.55;;
8341;SDS011;4208;49.406;10.788;2022-09-29T10:57:11;5.70;;;3.72;;
8341;SDS011;4208;49.406;10.788;2022-09-29T10:59:45;5.70;;;2.83;;
8341;SDS011;4208;49.406;10.788;2022-09-29T11:02:17;8.30;;;3.70;;
8341;SDS011;4208;49.406;10.788;2022-09-29T11:04:50;5.80;;;3.70;;
8341;SDS011;4208;49.406;10.788;2022-09-29T11:07:20;5.95;;;3.67;;
8341;SDS011;4208;49.406;10.788;2022-09-29T11:09:48;5.82;;;3.20;;
8341;SDS011;4208;49.406;10.788;2022-09-29T11:12:24;8.95;;;2.97;;
8341;SDS011;4208;49.406;10.788;2022-09-29T11:14:57;5.20;;;2.38;;
8341;SDS011;4208;49.406;10.788;2022-09-29T11:17:28;3.60;;;2.28;;
8341;SDS011;4208;49.406;10.788;2022-09-29T11:19:58;4.97;;;2.50;;
8341;SDS011;4208;49.406;10.788;2022-09-29T11:22:37;5.55;;;2.50;;
8341;SDS011;4208;49.406;10.788;2022-09-29T11:25:24;5.43;;;2.30;;
8341;SDS011;4208;49.406;10.788;2022-09-29T11:28:23;6.55;;;2.30;;
8341;SDS011;4208;49.406;10.788;2022-09-29T11:31:08;5.72;;;2.40;;
8341;SDS011;4208;49.406;10.788;2022-09-29T11:33:47;6.95;;;2.42;;
8341;SDS011;4208;49.406;10.788;2022-09-29T11:36:26;2.78;;;1.77;;
8341;SDS011;4208;49.406;10.788;2022-09-29T11:39:14;1.83;;;1.50;;
8341;SDS011;4208;49.406;10.788;2022-09-29T11:41:58;5.93;;;2.10;;
8341;SDS011;4208;49.406;10.788;2022-09-29T11:50:40;4.50;;;2.10;;
8341;SDS011;4208;49.406;10.788;2022-09-29T11:53:26;3.53;;;1.52;;
8341;SDS011;4208;49.406;10.788;2022-09-29T11:56:24;3.03;;;1.90;;
8341;SDS011;4208;49.406;10.788;2022-09-29T11:59:01;5.53;;;1.88;;
8341;SDS011;4208;49.406;10.788;2022-09-29T12:02:03;4.82;;;2.20;;
8341;SDS011;4208;49.406;10.788;2022-09-29T12:04:54;5.43;;;2.40;;
8341;SDS011;4208;49.406;10.788;2022-09-29T12:07:30;2.78;;;1.98;;
8341;SDS011;4208;49.406;10.788;2022-09-29T12:10:14;5.85;;;2.00;;
8341;SDS011;4208;49.406;10.788;2022-09-29T12:12:54;3.90;;;1.70;;
8341;SDS011;4208;49.406;10.788;2022-09-29T12:15:32;4.53;;;1.80;;
8341;SDS011;4208;49.406;10.788;2022-09-29T12:18:12;3.20;;;1.63;;
8341;SDS011;4208;49.406;10.788;2022-09-29T12:20:45;3.65;;;1.80;;
8341;SDS011;4208;49.406;10.788;2022-09-29T12:23:17;5.05;;;2.05;;
8341;SDS011;4208;49.406;10.788;2022-09-29T12:25:54;6.20;;;1.95;;
8341;SDS011;4208;49.406;10.788;2022-09-29T12:28:27;5.78;;;2.22;;
8341;SDS011;4208;49.406;10.788;2022-09-29T12:31:02;4.18;;;1.80;;
8341;SDS011;4208;49.406;10.788;2022-09-29T12:33:38;7.97;;;2.10;;
8341;SDS011;4208;49.406;10.788;2022-09-29T12:36:15;4.55;;;2.95;;
8341;SDS011;4208;49.406;10.788;2022-09-29T12:39:12;5.18;;;2.08;;
8341;SDS011;4208;49.406;10.788;2022-09-29T12:41:50;3.85;;;1.95;;
8341;SDS011;4208;49.406;10.788;2022-09-29T12:44:24;3.72;;;2.13;;
8341;SDS011;4208;49.406;10.788;2022-09-29T12:47:01;2.92;;;1.77;;
8341;SDS011;4208;49.406;10.788;2022-09-29T12:49:38;4.38;;;1.80;;
8341;SDS011;4208;49.406;10.788;2022-09-29T12:52:18;3.53;;;2.15;;
8341;SDS011;4208;49.406;10.788;2022-09-29T12:54:51;5.23;;;2.03;;
8341;SDS011;4208;49.406;10.788;2022-09-29T12:57:25;4.82;;;1.52;;
8341;SDS011;4208;49.406;10.788;2022-09-29T12:59:59;4.65;;;1.58;;
8341;SDS011;4208;49.406;10.788;2022-09-29T13:02:36;4.18;;;1.52;;
8341;SDS011;4208;49.406;10.788;2022-09-29T13:05:30;3.05;;;1.40;;
8341;SDS011;4208;49.406;10.788;2022-09-29T13:08:28;5.13;;;2.40;;
8341;SDS011;4208;49.406;10.788;2022-09-29T13:11:18;5.10;;;1.48;;
8341;SDS011;4208;49.406;10.788;2022-09-29T13:14:35;5.43;;;2.50;;
8341;SDS011;4208;49.406;10.788;2022-09-29T13:17:14;3.33;;;2.43;;
8341;SDS011;4208;49.406;10.788;2022-09-29T13:20:00;4.25;;;2.58;;
8341;SDS011;4208;49.406;10.788;2022-09-29T13:22:55;6.45;;;3.70;;
8341;SDS011;4208;49.406;10.788;2022-09-29T13:25:56;4.55;;;1.73;;
8341;SDS011;4208;49.406;10.788;2022-09-29T13:28:33;1.63;;;1.40;;
8341;SDS011;4208;49.406;10.788;2022-09-29T13:31:07;6.28;;;3.60;;
8341;SDS011;4208;49.406;10.788;2022-09-29T13:33:40;2.60;;;1.40;;
8341;SDS011;4208;49.406;10.788;2022-09-29T13:36:21;8.15;;;4.47;;
8341;SDS011;4208;49.406;10.788;2022-09-29T13:38:54;4.40;;;2.70;;
8341;SDS011;4208;49.406;10.788;2022-09-29T13:41:32;6.07;;;2.58;;
8341;SDS011;4208;49.406;10.788;2022-09-29T13:44:18;4.97;;;3.57;;
8341;SDS011;4208;49.406;10.788;2022-09-29T13:46:51;6.35;;;3.67;;
8341;SDS011;4208;49.406;10.788;2022-09-29T13:49:27;5.88;;;3.47;;
8341;SDS011;4208;49.406;10.788;2022-09-29T13:51:58;5.00;;;2.83;;
8341;SDS011;4208;49.406;10.788;2022-09-29T13:54:32;4.80;;;3.42;;
8341;SDS011;4208;49.406;10.788;2022-09-29T13:57:06;8.27;;;4.53;;
8341;SDS011;4208;49.406;10.788;2022-09-29T14:03:00;4.67;;;2.00;;
8341;SDS011;4208;49.406;10.788;2022-09-29T14:05:45;2.30;;;2.10;;
8341;SDS011;4208;49.406;10.788;2022-09-29T14:08:29;4.67;;;2.23;;
8341;SDS011;4208;49.406;10.788;2022-09-29T14:11:07;5.07;;;2.20;;
8341;SDS011;4208;49.406;10.788;2022-09-29T14:13:47;7.40;;;4.43;;
8341;SDS011;4208;49.406;10.788;2022-09-29T14:16:26;4.53;;;2.80;;
8341;SDS011;4208;49.406;10.788;2022-09-29T14:19:01;4.20;;;2.90;;
8341;SDS011;4208;49.406;10.788;2022-09-29T14:21:44;3.73;;;2.10;;
8341;SDS011;4208;49.406;10.788;2022-09-29T14:30:11;5.70;;;3.00;;
8341;SDS011;4208;49.406;10.788;2022-09-29T14:32:46;4.70;;;3.30;;
8341;SDS011;4208;49.406;10.788;2022-09-29T14:35:21;7.47;;;5.25;;
8341;SDS011;4208;49.406;10.788;2022-09-29T14:37:57;4.45;;;3.63;;
8341;SDS011;4208;49.406;10.788;2022-09-29T14:40:29;5.63;;;3.50;;
8341;SDS011;4208;49.406;10.788;2022-09-29T14:43:11;3.57;;;2.87;;
8341;SDS011;4208;49.406;10.788;2022-09-29T14:45:50;3.33;;;1.80;;
8341;SDS011;4208;49.406;10.788;2022-09-29T14:48:53;3.67;;;2.07;;
8341;SDS011;4208;49.406;10.788;2022-09-29T14:51:49;4.53;;;1.80;;
8341;SDS011;4208;49.406;10.788;2022-09-29T14:54:38;2.73;;;2.10;;
8341;SDS011;4208;49.406;10.788;2022-09-29T14:57:22;4.72;;;2.63;;
8341;SDS011;4208;49.406;10.788;2022-09-29T15:00:03;4.82;;;1.83;;
8341;SDS011;4208;49.406;10.788;2022-09-29T15:02:40;2.47;;;1.67;;
8341;SDS011;4208;49.406;10.788;2022-09-29T15:05:12;2.70;;;2.17;;
8341;SDS011;4208;49.406;10.788;2022-09-29T15:07:42;2.23;;;1.50;;
8341;SDS011;4208;49.406;10.788;2022-09-29T15:10:19;1.80;;;1.55;;
8341;SDS011;4208;49.406;10.788;2022-09-29T15:12:50;4.63;;;1.85;;
8341;SDS011;4208;49.406;10.788;2022-09-29T15:15:31;2.63;;;1.75;;
8341;SDS011;4208;49.406;10.788;2022-09-29T15:18:07;4.05;;;2.20;;
8341;SDS011;4208;49.406;10.788;2022-09-29T15:20:49;2.90;;;1.80;;
8341;SDS011;4208;49.406;10.788;2022-09-29T15:23:33;3.80;;;2.45;;
8341;SDS011;4208;49.406;10.788;2022-09-29T15:26:21;3.67;;;1.73;;
8341;SDS011;4208;49.406;10.788;2022-09-29T15:28:53;2.85;;;1.55;;
8341;SDS011;4208;49.406;10.788;2022-09-29T15:31:26;2.97;;;1.80;;
8341;SDS011;4208;49.406;10.788;2022-09-29T15:33:56;4.03;;;1.60;;
8341;SDS011;4208;49.406;10.788;2022-09-29T15:36:25;4.25;;;1.98;;
8341;SDS011;4208;49.406;10.788;2022-09-29T15:38:59;2.42;;;1.42;;
8341;SDS011;4208;49.406;10.788;2022-09-29T15:41:31;25.90;;;11.20;;
8341;SDS011;4208;49.406;10.788;2022-09-29T15:44:02;38.65;;;15.95;;
8341;SDS011;4208;49.406;10.788;2022-09-29T15:46:46;29.55;;;13.25;;
8341;SDS011;4208;49.406;10.788;2022-09-29T15:49:17;18.50;;;7.47;;
8341;SDS011;4208;49.406;10.788;2022-09-29T15:51:54;15.15;;;5.88;;
8341;SDS011;4208;49.406;10.788;2022-09-29T15:54:25;5.53;;;3.20;;
8341;SDS011;4208;49.406;10.788;2022-09-29T15:56:59;4.63;;;2.58;;
8341;SDS011;4208;49.406;10.788;2022-09-29T15:59:46;2.57;;;1.60;;